createdAt,value
2023-03-22T00:01:21.295Z,98762.63
2023-03-22T00:03:49.269Z,98765.22
2023-03-22T00:06:16.749Z,98772.91
2023-03-22T00:08:44.378Z,98770.31
2023-03-22T00:11:12.913Z,98771.16
2023-03-22T00:13:39.807Z,98775.41
2023-03-22T00:16:07.084Z,98777.97
2023-03-22T00:18:34.294Z,98769.41
2023-03-22T00:21:01.855Z,98776.22
2023-03-22T00:23:29.467Z,98775.34
2023-03-22T00:25:56.570Z,98769.34
2023-03-22T00:28:24.608Z,98775.34
2023-03-22T00:31:00.497Z,98780.47
2023-03-22T00:33:28.558Z,98778.78
2023-03-22T00:36:00.371Z,98777.06
2023-03-22T00:38:42.382Z,98789.88
2023-03-22T00:41:16.217Z,98789.88
2023-03-22T00:43:43.597Z,98785.59
2023-03-22T00:46:11.383Z,98794.97
2023-03-22T00:48:38.731Z,98801.84
2023-03-22T00:51:06.222Z,98804.41
2023-03-22T00:53:33.447Z,98801.00
2023-03-22T00:56:00.591Z,98803.56
2023-03-22T00:58:27.339Z,98795.88
2023-03-22T01:00:54.210Z,98804.47
2023-03-22T01:03:22.056Z,98802.72
2023-03-22T01:05:52.182Z,98809.53
2023-03-22T01:08:18.952Z,98815.44
2023-03-22T01:10:46.090Z,98806.03
2023-03-22T01:13:13.086Z,98818.81
2023-03-22T01:15:40.015Z,98815.41
2023-03-22T01:18:07.662Z,98831.63
2023-03-22T01:20:35.277Z,98823.03
2023-03-22T01:23:02.120Z,98828.16
2023-03-22T01:25:28.963Z,98828.16
2023-03-22T01:27:56.058Z,98827.28
2023-03-22T01:30:22.868Z,98824.72
2023-03-22T01:32:49.690Z,98830.72
2023-03-22T01:35:16.544Z,98836.75
2023-03-22T01:37:43.342Z,98835.88
2023-03-22T01:40:13.413Z,98844.47
2023-03-22T01:42:40.353Z,98858.94
2023-03-22T01:45:27.549Z,98858.94
2023-03-22T01:48:02.479Z,98852.94
2023-03-22T01:50:31.252Z,98850.38
2023-03-22T01:53:00.589Z,98857.19
2023-03-22T01:55:28.188Z,98864.94
2023-03-22T01:57:55.564Z,98866.63
2023-03-22T02:00:22.691Z,98864.03
2023-03-22T02:02:52.394Z,98877.72
2023-03-22T02:05:22.269Z,98866.63
2023-03-22T02:07:50.615Z,98865.75
2023-03-22T02:10:22.187Z,98860.66
2023-03-22T02:13:07.230Z,98860.75
2023-03-22T02:15:43.551Z,98874.41
2023-03-22T02:18:16.497Z,98868.41
2023-03-22T02:21:02.439Z,98869.22
2023-03-22T02:24:03.790Z,98872.72
2023-03-22T02:26:51.749Z,98870.19
2023-03-22T02:29:34.060Z,98876.13
2023-03-22T02:32:12.565Z,98885.53
2023-03-22T02:35:21.378Z,98882.16
2023-03-22T02:38:00.318Z,98877.00
2023-03-22T02:40:39.489Z,98881.31
2023-03-22T02:43:41.678Z,98886.47
2023-03-22T02:46:18.949Z,98889.88
2023-03-22T02:49:08.471Z,98898.44
2023-03-22T02:51:47.460Z,98901.81
2023-03-22T02:54:18.991Z,98900.09
2023-03-22T02:56:57.795Z,98904.28
2023-03-22T02:59:26.886Z,98919.56
2023-03-22T03:01:58.259Z,98913.53
2023-03-22T03:04:29.416Z,98921.19
2023-03-22T03:07:00.469Z,98921.16
2023-03-22T03:09:28.171Z,98926.25
2023-03-22T03:11:55.336Z,98928.75
2023-03-22T03:14:26.729Z,98928.69
2023-03-22T03:17:16.789Z,98935.56
2023-03-22T03:19:51.738Z,98925.25
2023-03-22T03:22:29.595Z,98939.78
2023-03-22T03:25:34.167Z,98943.19
2023-03-22T03:28:11.418Z,98943.19
2023-03-22T03:30:48.747Z,98950.84
2023-03-22T03:33:19.754Z,98944.03
2023-03-22T03:36:01.510Z,98954.28
2023-03-22T03:38:32.007Z,98957.72
2023-03-22T03:41:27.443Z,98954.34
2023-03-22T03:43:56.242Z,98959.41
2023-03-22T03:46:23.023Z,98960.28
2023-03-22T03:48:51.811Z,98966.28
2023-03-22T03:51:18.847Z,98965.41
2023-03-22T03:53:45.576Z,98966.28
2023-03-22T03:56:12.434Z,98968.84
2023-03-22T03:58:39.170Z,98965.44
2023-03-22T04:01:06.188Z,98968.03
2023-03-22T04:03:33.033Z,98973.19
2023-03-22T04:05:59.904Z,98971.50
2023-03-22T04:08:27.395Z,98974.94
2023-03-22T04:10:54.187Z,98980.94
2023-03-22T04:13:25.187Z,98989.53
2023-03-22T04:15:55.445Z,98991.31
2023-03-22T04:18:22.226Z,98975.06
2023-03-22T04:20:49.564Z,98979.34
2023-03-22T04:23:16.595Z,98984.50
2023-03-22T04:25:43.705Z,98995.66
2023-03-22T04:28:10.507Z,98987.91
2023-03-22T04:30:37.537Z,98993.84
2023-03-22T04:33:08.513Z,98998.09
2023-03-22T04:35:35.452Z,98995.56
2023-03-22T04:38:02.225Z,99005.81
2023-03-22T04:40:31.802Z,98995.53
2023-03-22T04:42:58.975Z,99017.75
2023-03-22T04:45:29.278Z,99015.19
2023-03-22T04:47:56.422Z,99017.75
2023-03-22T04:50:23.350Z,99016.06
2023-03-22T04:52:50.375Z,99025.47
2023-03-22T04:55:17.167Z,99034.00
2023-03-22T04:57:43.919Z,99016.06
2023-03-22T05:00:11.341Z,99027.97
2023-03-22T05:02:41.490Z,99033.09
2023-03-22T05:05:08.548Z,99032.22
2023-03-22T05:07:36.572Z,99031.44
2023-03-22T05:10:03.535Z,99032.34
2023-03-22T05:12:30.317Z,99034.91
2023-03-22T05:14:57.102Z,99040.94
2023-03-22T05:17:23.835Z,99043.50
2023-03-22T05:19:51.939Z,99041.88
2023-03-22T05:22:19.296Z,99046.22
2023-03-22T05:24:46.172Z,99044.59
2023-03-22T05:27:14.224Z,99047.22
2023-03-22T05:29:45.010Z,99053.22
2023-03-22T05:32:12.141Z,99054.91
2023-03-22T05:34:40.119Z,99060.78
2023-03-22T05:37:06.842Z,99064.91
2023-03-22T05:39:33.876Z,99071.69
2023-03-22T05:42:00.650Z,99079.31
2023-03-22T05:44:27.560Z,99081.06
2023-03-22T05:46:54.319Z,99077.59
2023-03-22T05:49:21.212Z,99092.22
2023-03-22T05:51:48.136Z,99087.06
2023-03-22T05:54:14.864Z,99086.16
2023-03-22T05:56:41.564Z,99087.84
2023-03-22T05:59:08.359Z,99096.34
2023-03-22T06:01:35.326Z,99111.69
2023-03-22T06:04:02.288Z,99103.88
2023-03-22T06:06:29.151Z,99116.53
2023-03-22T06:09:04.294Z,99110.50
2023-03-22T06:11:41.185Z,99119.81
2023-03-22T06:14:08.049Z,99125.69
2023-03-22T06:16:34.868Z,99140.16
2023-03-22T06:19:01.691Z,99123.91
2023-03-22T06:21:28.473Z,99124.78
2023-03-22T06:23:55.260Z,99139.41
2023-03-22T06:26:22.014Z,99131.78
2023-03-22T06:28:48.879Z,99135.34
2023-03-22T06:31:15.861Z,99134.59
2023-03-22T06:33:42.653Z,99134.75
2023-03-22T06:36:09.734Z,99135.66
2023-03-22T06:38:36.460Z,99131.44
2023-03-22T06:41:03.365Z,99129.81
2023-03-22T06:43:30.474Z,99135.97
2023-03-22T06:45:57.416Z,99137.06
2023-03-22T06:48:24.263Z,99137.28
2023-03-22T06:50:51.090Z,99135.63
2023-03-22T06:53:17.801Z,99134.78
2023-03-22T06:55:44.584Z,99138.97
2023-03-22T06:58:11.699Z,99143.94
2023-03-22T07:00:39.313Z,99143.22
2023-03-22T07:03:06.247Z,99146.66
2023-03-22T07:05:33.077Z,99151.97
2023-03-22T07:07:59.857Z,99149.59
2023-03-22T07:10:26.614Z,99152.31
2023-03-22T07:12:53.383Z,99148.78
2023-03-22T07:15:24.306Z,99147.69
2023-03-22T07:17:52.227Z,99141.63
2023-03-22T07:20:20.033Z,99143.34
2023-03-22T07:22:47.089Z,99144.94
2023-03-22T07:25:14.025Z,99145.00
2023-03-22T07:27:41.170Z,99150.09
2023-03-22T07:30:09.819Z,99157.75
2023-03-22T07:32:37.065Z,99161.31
2023-03-22T07:35:04.141Z,99169.13
2023-03-22T07:37:31.283Z,99175.25
2023-03-22T07:39:58.049Z,99172.66
2023-03-22T07:42:24.874Z,99176.97
2023-03-22T07:44:51.961Z,99174.50
2023-03-22T07:47:27.192Z,99174.63
2023-03-22T07:50:00.873Z,99170.59
2023-03-22T07:52:27.959Z,99181.72
2023-03-22T07:54:54.737Z,99178.28
2023-03-22T07:57:21.502Z,99178.25
2023-03-22T07:59:48.249Z,99172.31
2023-03-22T08:02:16.096Z,99174.91
2023-03-22T08:04:42.865Z,99183.44
2023-03-22T08:07:10.158Z,99189.41
2023-03-22T08:09:37.631Z,99185.13
2023-03-22T08:12:04.630Z,99175.75
2023-03-22T08:14:36.677Z,99175.00
2023-03-22T08:17:05.728Z,99184.53
2023-03-22T08:19:33.308Z,99185.34
2023-03-22T08:22:49.927Z,99186.28
2023-03-22T08:25:16.767Z,99178.47
2023-03-22T08:27:43.509Z,99185.41
2023-03-22T08:30:11.123Z,99185.41
2023-03-22T08:32:38.032Z,99188.88
2023-03-22T08:35:06.438Z,99194.03
2023-03-22T08:37:33.207Z,99196.56
2023-03-22T08:39:59.982Z,99202.50
2023-03-22T08:42:26.864Z,99205.00
2023-03-22T08:44:53.581Z,99187.03
2023-03-22T08:47:20.588Z,99191.41
2023-03-22T08:49:47.414Z,99193.22
2023-03-22T08:52:14.236Z,99193.34
2023-03-22T08:54:41.501Z,99190.00
2023-03-22T08:57:10.344Z,99199.44
2023-03-22T08:59:37.262Z,99197.72
2023-03-22T09:02:04.458Z,99202.88
2023-03-22T09:04:31.504Z,99199.41
2023-03-22T09:06:58.295Z,99198.47
2023-03-22T09:09:25.414Z,99195.88
2023-03-22T09:11:52.547Z,99199.22
2023-03-22T09:14:19.333Z,99204.28
2023-03-22T09:16:47.204Z,99202.59
2023-03-22T09:19:14.172Z,99200.88
2023-03-22T09:21:41.240Z,99199.19
2023-03-22T09:24:08.682Z,99192.38
2023-03-22T09:26:36.991Z,99206.22
2023-03-22T09:29:03.814Z,99202.94
2023-03-22T09:31:30.879Z,99196.22
2023-03-22T09:33:57.643Z,99193.69
2023-03-22T09:36:24.509Z,99196.28
2023-03-22T09:38:51.417Z,99199.72
2023-03-22T09:41:40.221Z,99204.88
2023-03-22T09:44:14.247Z,99203.16
2023-03-22T09:46:46.081Z,99213.47
2023-03-22T09:49:24.459Z,99208.31
2023-03-22T09:51:53.149Z,99206.59
2023-03-22T09:54:35.310Z,99214.38
2023-03-22T09:57:11.025Z,99215.28
2023-03-22T09:59:57.098Z,99214.41
2023-03-22T10:02:54.897Z,99217.09
2023-03-22T10:05:43.691Z,99203.31
2023-03-22T10:08:27.756Z,99197.38
2023-03-22T10:10:54.806Z,99196.47
2023-03-22T10:13:24.200Z,99200.75
2023-03-22T10:15:56.941Z,99208.41
2023-03-22T10:18:25.934Z,99204.09
2023-03-22T10:21:03.858Z,99210.16
2023-03-22T10:23:37.024Z,99199.78
2023-03-22T10:26:06.647Z,99212.53
2023-03-22T10:28:44.391Z,99210.81
2023-03-22T10:31:16.113Z,99212.53
2023-03-22T10:33:53.624Z,99201.44
2023-03-22T10:36:23.855Z,99203.25
2023-03-22T10:38:56.440Z,99193.06
2023-03-22T10:41:25.745Z,99198.22
2023-03-22T10:43:55.647Z,99203.38
2023-03-22T10:46:26.216Z,99198.22
2023-03-22T10:48:58.730Z,99202.53
2023-03-22T10:51:49.087Z,99202.50
2023-03-22T10:54:26.375Z,99198.22
2023-03-22T10:56:53.408Z,99194.81
2023-03-22T10:59:42.444Z,99198.28
2023-03-22T11:02:21.580Z,99205.13
2023-03-22T11:04:53.867Z,99197.38
2023-03-22T11:07:50.224Z,99201.72
2023-03-22T11:10:29.723Z,99194.81
2023-03-22T11:13:12.315Z,99207.72
2023-03-22T11:15:51.771Z,99203.38
2023-03-22T11:18:19.591Z,99205.91
2023-03-22T11:21:03.887Z,99209.38
2023-03-22T11:23:36.083Z,99207.59
2023-03-22T11:26:12.088Z,99206.78
2023-03-22T11:28:50.849Z,99211.06
2023-03-22T11:31:20.535Z,99213.47
2023-03-22T11:33:53.438Z,99206.53
2023-03-22T11:36:20.584Z,99215.06
2023-03-22T11:38:48.778Z,99216.75
2023-03-22T11:41:27.316Z,99208.16
2023-03-22T11:43:57.061Z,99208.16
2023-03-22T11:46:24.997Z,99206.44
2023-03-22T11:49:00.348Z,99209.91
2023-03-22T11:51:38.821Z,99203.94
2023-03-22T11:54:16.805Z,99208.22
2023-03-22T11:56:47.353Z,99211.59
2023-03-22T11:59:26.236Z,99211.56
2023-03-22T12:02:29.351Z,99204.75
2023-03-22T12:05:15.544Z,99202.94
2023-03-22T12:07:43.434Z,99208.06
2023-03-22T12:10:21.071Z,99203.00
2023-03-22T12:12:56.263Z,99213.31
2023-03-22T12:15:37.240Z,99206.50
2023-03-22T12:18:13.820Z,99195.41
2023-03-22T12:20:57.451Z,99198.09
2023-03-22T12:23:27.478Z,99201.50
2023-03-22T12:26:12.327Z,99197.22
2023-03-22T12:28:52.605Z,99191.19
2023-03-22T12:31:24.335Z,99198.94
2023-03-22T12:33:54.816Z,99191.31
2023-03-22T12:36:32.131Z,99189.56
2023-03-22T12:39:01.327Z,99179.31
2023-03-22T12:41:36.485Z,99196.50
2023-03-22T12:44:11.284Z,99186.06
2023-03-22T12:47:01.153Z,99192.91
2023-03-22T12:49:35.846Z,99185.97
2023-03-22T12:52:22.447Z,99180.03
2023-03-22T12:54:53.122Z,99184.31
2023-03-22T12:57:20.526Z,99181.03
2023-03-22T12:59:52.209Z,99175.97
2023-03-22T13:02:30.146Z,99176.00
2023-03-22T13:05:06.695Z,99157.97
2023-03-22T13:07:48.675Z,99155.31
2023-03-22T13:10:34.158Z,99155.19
2023-03-22T13:13:31.820Z,99129.97
2023-03-22T13:15:58.697Z,99129.06
2023-03-22T13:18:58.122Z,99151.50
2023-03-22T13:21:29.913Z,99163.69
2023-03-22T13:24:06.410Z,99156.81
2023-03-22T13:26:53.508Z,99156.97
2023-03-22T13:29:20.524Z,99167.38
2023-03-22T13:31:47.259Z,99159.66
2023-03-22T13:34:36.124Z,99169.16
2023-03-22T13:37:05.326Z,99163.13
2023-03-22T13:39:36.071Z,99164.81
2023-03-22T13:42:08.599Z,99173.38
2023-03-22T13:44:43.985Z,99165.63
2023-03-22T13:47:35.977Z,99158.78
2023-03-22T13:50:16.123Z,99145.91
2023-03-22T13:52:53.016Z,99153.66
2023-03-22T13:55:41.271Z,99151.94
2023-03-22T13:58:37.436Z,99155.38
2023-03-22T14:01:16.724Z,99143.34
2023-03-22T14:03:47.499Z,99139.91
2023-03-22T14:06:19.042Z,99139.91
2023-03-22T14:08:51.909Z,99132.16
2023-03-22T14:11:20.256Z,99118.44
2023-03-22T14:13:56.248Z,99115.84
2023-03-22T14:16:43.541Z,99112.41
2023-03-22T14:19:25.111Z,99124.41
